| time (UTC) | temp F | wind direction | speed MPH | gust MPH | rain 1hr in | rain 24hr in | rain mn in | humidity % | barometer mb |
| 20260502152129 | 50 | 52 | 6.0 | 10.0 | 0.00 | 0.00 | 0.00 | 48 | 992.2 |
| 20260502151544 | 50 | 235 | 0.0 | 10.0 | 0.00 | 0.00 | 0.00 | 51 | 992.2 |
| 20260502150917 | 51 | 207 | 10.0 | 17.0 | 0.00 | 0.00 | 0.00 | 48 | 991.8 |
| 20260502150345 | 50 | 199 | 3.0 | 12.0 | 0.00 | 0.00 | 0.00 | 50 | 991.8 |
| 20260502130324 | 41 | 213 | 3.0 | 6.0 | 0.00 | 0.00 | 0.00 | 96 | 992.2 |
| 20260502123319 | 39 | 25 | 1.0 | 3.0 | 0.00 | 0.00 | 0.00 | 99 | 991.8 |
| 20260502122727 | 37 | 344 | 2.0 | 5.0 | 0.00 | 0.00 | 0.00 | 99 | 991.8 |
| 20260502122144 | 36 | 19 | 2.0 | 3.0 | 0.00 | 0.00 | 0.00 | 99 | 992.2 |
| 20260502121540 | 36 | 41 | 0.0 | 3.0 | 0.00 | 0.00 | 0.00 | 99 | 992.2 |
| 20260502120923 | 36 | 36 | 1.0 | 3.0 | 0.00 | 0.00 | 0.00 | 99 | 992.2 |
| 20260502115717 | 34 | 30 | 2.0 | 3.0 | 0.00 | 0.00 | 0.00 | 99 | 991.8 |
| 20260502114526 | 33 | 25 | 0.0 | 3.0 | 0.00 | 0.00 | 0.00 | 99 | 992.2 |
| 20260502113932 | 34 | 220 | 0.0 | 4.0 | 0.00 | 0.00 | 0.00 | 99 | 991.8 |
| 20260502113336 | 32 | 86 | 0.0 | 2.0 | 0.00 | 0.00 | 0.00 | 99 | 992.2 |
| 20260502112731 | 32 | 37 | 1.0 | 3.0 | 0.00 | 0.00 | 0.00 | 99 | 991.8 |
| 20260502111521 | 31 | 73 | 1.0 | 3.0 | 0.00 | 0.00 | 0.00 | 99 | 991.8 |
| 20260502110923 | 31 | 85 | 0.0 | 2.0 | 0.00 | 0.00 | 0.00 | 99 | 991.8 |
| 20260502105718 | 30 | 266 | 0.0 | 2.0 | 0.00 | 0.00 | 0.00 | 99 | 991.8 |
| 20260502105151 | 30 | 142 | 0.0 | 2.0 | 0.00 | 0.00 | 0.00 | 99 | 991.8 |
| 20260502104512 | 30 | 341 | 0.0 | 2.0 | 0.00 | 0.00 | 0.00 | 99 | 991.8 |
| 20260502103944 | 31 | 145 | 2.0 | 4.0 | 0.00 | 0.00 | 0.00 | 99 | 991.8 |
| 20260502103330 | 30 | 173 | 1.0 | 3.0 | 0.00 | 0.00 | 0.00 | 99 | 991.8 |
| 20260502102722 | 31 | 92 | 0.0 | 2.0 | 0.00 | 0.00 | 0.00 | 99 | 991.8 |
| 20260502102128 | 31 | 150 | 2.0 | 2.0 | 0.00 | 0.00 | 0.00 | 99 | 991.8 |
| 20260502100935 | 31 | 140 | 0.0 | 2.0 | 0.00 | 0.00 | 0.00 | 99 | 991.5 |
| 20260502100347 | 31 | 76 | 0.0 | 2.0 | 0.00 | 0.00 | 0.00 | 99 | 991.8 |
| 20260502090948 | 32 | 171 | 0.0 | 3.0 | 0.00 | 0.00 | 0.00 | 99 | 992.2 |
| 20260502090333 | 32 | 116 | 1.0 | 2.0 | 0.00 | 0.00 | 0.00 | 99 | 992.2 |
| 20260502071526 | 34 | 154 | 0.0 | 2.0 | 0.00 | 0.00 | 0.00 | 99 | 991.1 |
| 20260502070913 | 34 | 138 | 0.0 | 2.0 | 0.00 | 0.00 | 0.00 | 99 | 991.1 |
| 20260502070337 | 34 | 181 | 1.0 | 4.0 | 0.00 | 0.00 | 0.00 | 99 | 991.1 |
| 20260502065712 | 34 | 174 | 2.0 | 2.0 | 0.00 | 0.00 | 0.00 | 99 | 991.1 |
| 20260502065141 | 34 | 150 | 1.0 | 3.0 | 0.00 | 0.00 | 0.00 | 99 | 991.5 |
| 20260502063913 | 35 | 144 | 1.0 | 2.0 | 0.00 | 0.00 | 0.00 | 99 | 991.8 |
| 20260502063326 | 35 | 182 | 1.0 | 4.0 | 0.00 | 0.00 | 0.00 | 99 | 991.5 |
| 20260502062727 | 36 | 184 | 1.0 | 3.0 | 0.00 | 0.00 | 0.00 | 99 | 991.8 |
| 20260502062149 | 36 | 110 | 1.0 | 2.0 | 0.00 | 0.00 | 0.00 | 99 | 991.8 |
| 20260502061532 | 36 | 78 | 0.0 | 3.0 | 0.00 | 0.00 | 0.00 | 99 | 991.8 |
| 20260502060950 | 36 | 158 | 0.0 | 2.0 | 0.00 | 0.00 | 0.00 | 99 | 991.8 |
| 20260502060338 | 36 | 146 | 2.0 | 2.0 | 0.00 | 0.00 | 0.00 | 99 | 991.5 |
| 20260502055713 | 36 | 178 | 1.0 | 2.0 | 0.00 | 0.00 | 0.00 | 99 | 991.8 |
| 20260502055137 | 36 | 193 | 1.0 | 2.0 | 0.00 | 0.00 | 0.00 | 99 | 991.8 |
| 20260502054539 | 37 | 197 | 1.0 | 3.0 | 0.00 | 0.00 | 0.00 | 99 | 991.8 |
| 20260502053936 | 37 | 129 | 2.0 | 2.0 | 0.00 | 0.00 | 0.00 | 99 | 991.8 |
| 20260502053342 | 37 | 141 | 1.0 | 2.0 | 0.00 | 0.00 | 0.00 | 99 | 991.8 |
| 20260502052742 | 37 | 200 | 1.0 | 2.0 | 0.00 | 0.00 | 0.00 | 99 | 991.8 |
| 20260502052136 | 37 | 185 | 1.0 | 2.0 | 0.00 | 0.00 | 0.00 | 99 | 992.2 |
| 20260502051537 | 37 | 192 | 1.0 | 2.0 | 0.00 | 0.00 | 0.00 | 99 | 991.8 |
| 20260502050947 | 38 | 214 | 0.0 | 2.0 | 0.00 | 0.00 | 0.00 | 99 | 992.2 |
| 20260502045713 | 38 | 171 | 0.0 | 2.0 | 0.00 | 0.00 | 0.00 | 99 | 992.2 |
| 20260502045152 | 38 | 143 | 0.0 | 2.0 | 0.00 | 0.00 | 0.00 | 99 | 991.8 |
| 20260502043951 | 40 | 167 | 0.0 | 2.0 | 0.00 | 0.00 | 0.00 | 99 | 992.2 |
| 20260502042725 | 40 | 157 | 1.0 | 2.0 | 0.00 | 0.00 | 0.00 | 99 | 992.2 |
| 20260502042129 | 40 | 158 | 1.0 | 2.0 | 0.00 | 0.00 | 0.00 | 99 | 992.2 |
| 20260502041554 | 40 | 141 | 0.0 | 2.0 | 0.00 | 0.00 | 0.00 | 99 | 992.2 |
| 20260502040935 | 40 | 100 | 0.0 | 2.0 | 0.00 | 0.00 | 0.00 | 99 | 992.2 |
| 20260502040353 | 40 | 206 | 0.0 | 2.0 | 0.00 | 0.00 | 0.00 | 99 | 991.8 |
| 20260502035735 | 40 | 154 | 1.0 | 3.0 | 0.00 | 0.00 | 0.04 | 99 | 992.2 |
| 20260502033952 | 39 | 29 | 0.0 | 2.0 | 0.00 | 0.00 | 0.04 | 99 | 992.5 |
| 20260502033341 | 39 | 80 | 0.0 | 2.0 | 0.00 | 0.00 | 0.04 | 99 | 992.2 |
| 20260502032121 | 40 | 185 | 0.0 | 2.0 | 0.00 | 0.00 | 0.04 | 99 | 992.2 |
| 20260502031527 | 39 | 91 | 0.0 | 2.0 | 0.00 | 0.00 | 0.04 | 99 | 992.2 |
| 20260502030936 | 39 | 102 | 1.0 | 2.0 | 0.00 | 0.00 | 0.04 | 99 | 992.2 |
| 20260502030329 | 39 | 151 | 1.0 | 2.0 | 0.00 | 0.00 | 0.04 | 99 | 992.2 |
| 20260502025726 | 39 | 182 | 0.0 | 2.0 | 0.00 | 0.00 | 0.04 | 99 | 992.2 |
| 20260502025148 | 39 | 89 | 0.0 | 2.0 | 0.00 | 0.00 | 0.04 | 99 | 992.2 |
| 20260502024553 | 38 | 149 | 2.0 | 2.0 | 0.00 | 0.00 | 0.04 | 99 | 992.2 |
| 20260502023949 | 38 | 178 | 2.0 | 2.0 | 0.00 | 0.00 | 0.04 | 99 | 991.8 |
| 20260502023327 | 39 | 158 | 1.0 | 2.0 | 0.00 | 0.00 | 0.04 | 99 | 991.8 |
| 20260502022736 | 39 | 89 | 0.0 | 3.0 | 0.00 | 0.00 | 0.04 | 99 | 992.2 |
| 20260502022149 | 38 | 158 | 1.0 | 2.0 | 0.00 | 0.00 | 0.04 | 99 | 991.8 |
| 20260502021524 | 38 | 162 | 1.0 | 2.0 | 0.00 | 0.00 | 0.04 | 99 | 991.5 |
| 20260502020917 | 38 | 226 | 0.0 | 2.0 | 0.00 | 0.00 | 0.04 | 98 | 991.5 |
| 20260502020338 | 38 | 215 | 0.0 | 2.0 | 0.00 | 0.00 | 0.04 | 98 | 991.5 |
| 20260502015114 | 39 | 151 | 0.0 | 2.0 | 0.00 | 0.00 | 0.04 | 98 | 991.5 |
| 20260502014554 | 39 | 197 | 2.0 | 3.0 | 0.00 | 0.00 | 0.04 | 98 | 991.5 |
| 20260502013953 | 39 | 224 | 1.0 | 2.0 | 0.00 | 0.00 | 0.04 | 97 | 991.5 |
| 20260502013312 | 40 | 20 | 0.0 | 2.0 | 0.00 | 0.00 | 0.04 | 97 | 991.5 |
| 20260502012741 | 40 | 188 | 0.0 | 2.0 | 0.00 | 0.00 | 0.04 | 97 | 991.1 |
| 20260502012136 | 40 | 215 | 0.0 | 2.0 | 0.00 | 0.00 | 0.04 | 96 | 991.1 |
| 20260502011521 | 41 | 178 | 0.0 | 2.0 | 0.00 | 0.00 | 0.04 | 96 | 990.8 |
| 20260502010935 | 41 | 86 | 0.0 | 3.0 | 0.00 | 0.00 | 0.04 | 95 | 990.8 |
| 20260502010317 | 41 | 187 | 1.0 | 2.0 | 0.00 | 0.00 | 0.04 | 94 | 990.5 |
| 20260502005749 | 42 | 193 | 1.0 | 2.0 | 0.00 | 0.00 | 0.04 | 93 | 990.5 |
| 20260502005118 | 42 | 190 | 0.0 | 2.0 | 0.00 | 0.00 | 0.04 | 92 | 990.1 |
| 20260502004519 | 43 | 255 | 0.0 | 2.0 | 0.00 | 0.00 | 0.04 | 93 | 990.1 |
| 20260502003914 | 43 | 61 | 0.0 | 2.0 | 0.00 | 0.00 | 0.04 | 92 | 990.1 |
| 20260502003311 | 43 | 196 | 0.0 | 2.0 | 0.00 | 0.00 | 0.04 | 91 | 990.1 |
| 20260502002144 | 44 | 204 | 2.0 | 3.0 | 0.00 | 0.00 | 0.04 | 88 | 990.1 |
| 20260502001533 | 45 | 179 | 1.0 | 4.0 | 0.00 | 0.00 | 0.04 | 86 | 990.1 |
| 20260502000923 | 45 | 329 | 0.0 | 2.0 | 0.00 | 0.00 | 0.04 | 85 | 990.1 |
| 20260502000354 | 46 | 59 | 0.0 | 4.0 | 0.00 | 0.00 | 0.04 | 83 | 990.1 |
| 20260501235710 | 46 | 350 | 1.0 | 5.0 | 0.00 | 0.00 | 0.04 | 82 | 989.8 |
| 20260501235129 | 46 | 223 | 1.0 | 7.0 | 0.00 | 0.00 | 0.04 | 81 | 989.8 |
| 20260501234529 | 47 | 121 | 2.0 | 6.0 | 0.00 | 0.00 | 0.04 | 81 | 989.5 |
| 20260501233932 | 47 | 79 | 1.0 | 9.0 | 0.00 | 0.00 | 0.04 | 79 | 989.5 |
| 20260501233330 | 47 | 354 | 3.0 | 14.0 | 0.00 | 0.00 | 0.04 | 78 | 989.5 |
| 20260501232119 | 48 | 182 | 4.0 | 8.0 | 0.00 | 0.00 | 0.04 | 77 | 989.5 |
| 20260501231520 | 48 | 324 | 2.0 | 11.0 | 0.00 | 0.00 | 0.04 | 77 | 989.5 |
| 20260501230915 | 49 | 234 | 14.0 | 14.0 | 0.00 | 0.00 | 0.04 | 78 | 989.5 |
| 20260501230339 | 49 | 219 | 4.0 | 7.0 | 0.00 | 0.00 | 0.04 | 79 | 989.5 |
| 20260501225745 | 49 | 351 | 5.0 | 12.0 | 0.00 | 0.00 | 0.04 | 78 | 989.5 |
| 20260501224521 | 50 | 198 | 3.0 | 9.0 | 0.00 | 0.00 | 0.04 | 77 | 989.1 |
| 20260501223953 | 50 | 173 | 0.0 | 8.0 | 0.00 | 0.00 | 0.04 | 76 | 989.5 |
| 20260501223351 | 49 | 195 | 5.0 | 9.0 | 0.00 | 0.00 | 0.04 | 77 | 989.1 |
| 20260501222716 | 50 | 22 | 4.0 | 20.0 | 0.00 | 0.00 | 0.04 | 75 | 988.8 |
| 20260501222115 | 50 | 184 | 4.0 | 9.0 | 0.00 | 0.00 | 0.04 | 76 | 988.8 |
| 20260501221520 | 51 | 199 | 2.0 | 11.0 | 0.00 | 0.00 | 0.04 | 75 | 988.8 |
| 20260501220340 | 51 | 59 | 7.0 | 13.0 | 0.00 | 0.00 | 0.04 | 74 | 988.8 |
| 20260501215719 | 50 | 248 | 3.0 | 10.0 | 0.00 | 0.00 | 0.04 | 75 | 988.8 |
| 20260501215129 | 51 | 228 | 5.0 | 12.0 | 0.00 | 0.00 | 0.04 | 78 | 988.8 |
| 20260501214546 | 51 | 51 | 5.0 | 10.0 | 0.00 | 0.00 | 0.04 | 76 | 988.8 |
| 20260501213923 | 52 | 68 | 3.0 | 16.0 | 0.00 | 0.00 | 0.04 | 74 | 988.4 |
| 20260501213324 | 52 | 199 | 3.0 | 13.0 | 0.00 | 0.00 | 0.04 | 75 | 988.1 |
| 20260501212738 | 52 | 355 | 2.0 | 12.0 | 0.00 | 0.00 | 0.04 | 74 | 988.1 |
| 20260501212141 | 54 | 329 | 2.0 | 19.0 | 0.00 | 0.00 | 0.04 | 71 | 987.8 |
| 20260501210942 | 56 | 19 | 5.0 | 16.0 | 0.00 | 0.00 | 0.04 | 69 | 987.8 |
| 20260501210334 | 54 | 345 | 2.0 | 8.0 | 0.00 | 0.00 | 0.04 | 71 | 987.8 |
| 20260501205152 | 56 | 214 | 4.0 | 14.0 | 0.00 | 0.00 | 0.04 | 71 | 987.1 |
| 20260501204536 | 55 | 228 | 9.0 | 13.0 | 0.00 | 0.00 | 0.04 | 73 | 987.1 |
| 20260501203941 | 56 | 320 | 2.0 | 5.0 | 0.00 | 0.00 | 0.04 | 77 | 987.1 |
| 20260501203329 | 56 | 219 | 2.0 | 8.0 | 0.00 | 0.00 | 0.04 | 79 | 987.1 |
| 20260501202716 | 55 | 196 | 2.0 | 4.0 | 0.00 | 0.00 | 0.04 | 80 | 987.1 |
| 20260501202122 | 55 | 197 | 2.0 | 7.0 | 0.00 | 0.00 | 0.04 | 80 | 986.7 |
| 20260501201536 | 54 | 219 | 2.0 | 7.0 | 0.00 | 0.00 | 0.04 | 82 | 986.7 |
| 20260501200947 | 55 | 151 | 2.0 | 4.0 | 0.00 | 0.00 | 0.04 | 82 | 987.1 |
| 20260501200349 | 54 | 180 | 3.0 | 5.0 | 0.00 | 0.00 | 0.04 | 83 | 987.1 |
| 20260501195727 | 54 | 20 | 1.0 | 4.0 | 0.00 | 0.00 | 0.04 | 89 | 987.4 |
| 20260501195125 | 54 | 67 | 3.0 | 5.0 | 0.00 | 0.00 | 0.04 | 89 | 987.4 |
| 20260501194547 | 54 | 238 | 2.0 | 6.0 | 0.00 | 0.00 | 0.04 | 90 | 987.4 |
| 20260501193934 | 52 | 183 | 3.0 | 4.0 | 0.00 | 0.00 | 0.04 | 91 | 987.8 |
| 20260501193314 | 51 | 135 | 2.0 | 3.0 | 0.00 | 0.00 | 0.04 | 94 | 987.8 |
| 20260501192719 | 50 | 185 | 0.0 | 3.0 | 0.00 | 0.00 | 0.04 | 94 | 987.8 |
| 20260501192139 | 50 | 199 | 0.0 | 4.0 | 0.00 | 0.00 | 0.04 | 94 | 987.8 |
| 20260501191517 | 50 | 5 | 2.0 | 3.0 | 0.00 | 0.00 | 0.04 | 93 | 987.8 |
| 20260501190942 | 50 | 208 | 2.0 | 5.0 | 0.00 | 0.00 | 0.04 | 92 | 987.8 |
| 20260501190351 | 51 | 162 | 0.0 | 2.0 | 0.00 | 0.00 | 0.04 | 94 | 987.8 |
| 20260501185727 | 50 | 164 | 0.0 | 3.0 | 0.00 | 0.00 | 0.03 | 93 | 987.8 |
| 20260501185114 | 50 | 160 | 0.0 | 4.0 | 0.00 | 0.00 | 0.03 | 93 | 987.8 |
| 20260501184538 | 50 | 206 | 1.0 | 9.0 | 0.00 | 0.00 | 0.03 | 91 | 987.8 |
| 20260501183947 | 51 | 34 | 4.0 | 5.0 | 0.00 | 0.00 | 0.03 | 90 | 987.4 |
| 20260501183330 | 51 | 191 | 3.0 | 4.0 | 0.00 | 0.00 | 0.03 | 90 | 987.8 |
| 20260501182719 | 51 | 148 | 2.0 | 2.0 | 0.00 | 0.00 | 0.03 | 91 | 987.8 |
| 20260501181520 | 50 | 28 | 0.0 | 4.0 | 0.00 | 0.00 | 0.02 | 91 | 987.4 |
| 20260501180926 | 50 | 191 | 0.0 | 3.0 | 0.00 | 0.00 | 0.02 | 92 | 987.4 |
| 20260501180335 | 50 | 157 | 3.0 | 10.0 | 0.00 | 0.00 | 0.02 | 90 | 987.4 |
| 20260501175130 | 51 | 26 | 0.0 | 2.0 | 0.00 | 0.00 | 0.02 | 91 | 987.4 |
| 20260501174538 | 51 | 173 | 0.0 | 3.0 | 0.00 | 0.00 | 0.02 | 90 | 987.4 |
| 20260501173944 | 52 | 164 | 2.0 | 4.0 | 0.00 | 0.00 | 0.02 | 89 | 987.1 |
| 20260501172714 | 52 | 142 | 0.0 | 2.0 | 0.00 | 0.00 | 0.01 | 88 | 987.4 |
| 20260501172116 | 52 | 150 | 1.0 | 2.0 | 0.00 | 0.00 | 0.01 | 87 | 987.1 |
| 20260501171540 | 53 | 166 | 2.0 | 2.0 | 0.00 | 0.00 | 0.01 | 88 | 987.1 |
| 20260501170341 | 52 | 82 | 1.0 | 2.0 | 0.00 | 0.00 | 0.01 | 87 | 987.1 |
| 20260501165729 | 51 | 42 | 2.0 | 2.0 | 0.00 | 0.00 | 0.01 | 86 | 987.1 |
| 20260501164516 | 52 | 192 | 3.0 | 10.0 | 0.00 | 0.00 | 0.01 | 85 | 987.8 |
| 20260501163947 | 52 | 176 | 2.0 | 4.0 | 0.00 | 0.00 | 0.00 | 84 | 987.8 |
| 20260501163319 | 54 | 160 | 0.0 | 4.0 | 0.00 | 0.00 | 0.00 | 82 | 987.4 |
| 20260501162710 | 55 | 139 | 0.0 | 2.0 | 0.00 | 0.00 | 0.00 | 77 | 987.4 |
| 20260501162117 | 54 | 50 | 0.0 | 2.0 | 0.00 | 0.00 | 0.00 | 76 | 987.4 |
| 20260501161548 | 54 | 340 | 0.0 | 2.0 | 0.00 | 0.00 | 0.00 | 76 | 987.1 |
| 20260501160348 | 54 | 39 | 0.0 | 2.0 | 0.00 | 0.00 | 0.00 | 76 | 987.4 |